Terminal Aerodrome Forecast
Issued by NWS

Home | Current Version | Previous Version | Text Only | Print | Product List | Glossary On
Versions: 1 2 3 4 5 6 7 8 9 10 11 12 13 14 15 16 17
000
FTUS45 KRIW 261200 AAA
TAFJAC
TAF AMD
KJAC 261250Z 2613/2712 VRB04KT 4SM BR OVC003
      TEMPO 2613/2616 1/2SM FZFG
     FM261900 VRB05KT P6SM FEW015 SCT030
     FM270200 36006KT P6SM FEW030
      AMD LTD TO CLD VIS AND WIND=

USA.gov is the U.S. government's official web portal to all federal, state and local government web resources and services.